KLM110 EHAM-ENCN
Flight info
| Callsign | KLM110 |
|---|---|
| Flight time | N/A |
| Altitude | 35000 |
| Route | ANDIK N873 IFTOC DCT TUSKA/N0445F360 DCT RASVI |
| Aircraft | A321/M-SDE3FGHIRWY/LB1 |
Departure
| Time | N/A |
|---|---|
| Airport | Amsterdam Airport Schiphol (EHAM) |
Arrival
| Time | 2026-04-21 14:34 |
|---|---|
| Airport | Kristiansand Airport (ENCN) |
| Time | Latitude | Longitude | Altitude | Speed | Heading |
|---|---|---|---|---|---|
| 2026-04-21 14:05 | 56.20771 | 7.96503 | 35415 ft | 443 kts | 6° |
| 2026-04-21 14:06 | 56.23824 | 7.96738 | 35417 ft | 444 kts | 6° |
| 2026-04-21 14:06 | 56.29893 | 7.97197 | 35438 ft | 420 kts | 6° |
| 2026-04-21 14:07 | 56.35694 | 7.97633 | 35440 ft | 422 kts | 6° |
| 2026-04-21 14:07 | 56.41682 | 7.98113 | 35448 ft | 438 kts | 6° |
| 2026-04-21 14:08 | 56.47794 | 7.98583 | 35445 ft | 444 kts | 5° |
| 2026-04-21 14:08 | 56.53973 | 7.99045 | 35447 ft | 445 kts | 5° |
| 2026-04-21 14:09 | 56.60162 | 7.99514 | 35439 ft | 445 kts | 5° |
| 2026-04-21 14:09 | 56.66349 | 7.99986 | 35450 ft | 445 kts | 5° |
| 2026-04-21 14:10 | 56.72534 | 8.00468 | 35453 ft | 445 kts | 5° |
| 2026-04-21 14:10 | 56.78725 | 8.00962 | 35454 ft | 445 kts | 5° |
| 2026-04-21 14:10 | 56.81818 | 8.01207 | 35291 ft | 445 kts | 5° |
| 2026-04-21 14:11 | 56.84934 | 8.01454 | 34384 ft | 453 kts | 5° |
| 2026-04-21 14:11 | 56.88104 | 8.01707 | 33529 ft | 456 kts | 5° |
| 2026-04-21 14:11 | 56.91251 | 8.01951 | 33042 ft | 450 kts | 5° |
| 2026-04-21 14:11 | 56.94375 | 8.02191 | 32423 ft | 448 kts | 5° |
| 2026-04-21 14:12 | 56.97485 | 8.02430 | 31825 ft | 446 kts | 5° |
| 2026-04-21 14:12 | 57.00572 | 8.02670 | 31240 ft | 443 kts | 5° |
| 2026-04-21 14:12 | 57.03644 | 8.02913 | 30661 ft | 441 kts | 6° |
| 2026-04-21 14:12 | 57.06706 | 8.03160 | 30020 ft | 439 kts | 6° |
| 2026-04-21 14:13 | 57.09746 | 8.03401 | 29453 ft | 435 kts | 6° |
| 2026-04-21 14:13 | 57.12755 | 8.03638 | 28876 ft | 431 kts | 5° |
| 2026-04-21 14:13 | 57.15698 | 8.03875 | 28343 ft | 426 kts | 5° |
| 2026-04-21 14:13 | 57.18688 | 8.04119 | 27781 ft | 423 kts | 5° |
| 2026-04-21 14:14 | 57.21579 | 8.04354 | 27240 ft | 420 kts | 5° |
| 2026-04-21 14:14 | 57.24493 | 8.04586 | 26705 ft | 416 kts | 5° |
| 2026-04-21 14:14 | 57.27378 | 8.04813 | 26172 ft | 413 kts | 5° |
| 2026-04-21 14:14 | 57.30208 | 8.05380 | 25657 ft | 406 kts | 14° |
| 2026-04-21 14:15 | 57.32971 | 8.06395 | 25155 ft | 403 kts | 14° |
| 2026-04-21 14:15 | 57.35713 | 8.07403 | 24673 ft | 399 kts | 14° |
| 2026-04-21 14:15 | 57.38426 | 8.08403 | 24199 ft | 396 kts | 14° |
| 2026-04-21 14:15 | 57.41116 | 8.09393 | 23683 ft | 392 kts | 14° |
| 2026-04-21 14:16 | 57.43760 | 8.10362 | 23444 ft | 381 kts | 14° |
| 2026-04-21 14:16 | 57.46335 | 8.11306 | 23141 ft | 373 kts | 14° |
| 2026-04-21 14:16 | 57.48864 | 8.12238 | 22716 ft | 369 kts | 14° |
| 2026-04-21 14:16 | 57.51369 | 8.13163 | 22270 ft | 365 kts | 14° |
| 2026-04-21 14:17 | 57.53850 | 8.14081 | 21904 ft | 360 kts | 14° |
| 2026-04-21 14:17 | 57.56276 | 8.14979 | 21644 ft | 352 kts | 14° |
| 2026-04-21 14:17 | 57.58648 | 8.15868 | 21458 ft | 341 kts | 16° |
| 2026-04-21 14:17 | 57.60865 | 8.17132 | 21319 ft | 327 kts | 25° |
| 2026-04-21 14:18 | 57.62925 | 8.18904 | 20805 ft | 322 kts | 30° |
| 2026-04-21 14:18 | 57.64954 | 8.20783 | 20293 ft | 331 kts | 30° |
| 2026-04-21 14:18 | 57.66999 | 8.22673 | 19805 ft | 331 kts | 29° |
| 2026-04-21 14:18 | 57.69057 | 8.24565 | 19194 ft | 327 kts | 29° |
| 2026-04-21 14:19 | 57.71084 | 8.26424 | 18565 ft | 323 kts | 28° |
| 2026-04-21 14:19 | 57.73081 | 8.28259 | 17888 ft | 315 kts | 28° |
| 2026-04-21 14:19 | 57.75025 | 8.30047 | 17470 ft | 309 kts | 28° |
| 2026-04-21 14:19 | 57.76951 | 8.31824 | 17085 ft | 307 kts | 28° |
| 2026-04-21 14:20 | 57.78864 | 8.33588 | 16715 ft | 307 kts | 28° |
| 2026-04-21 14:20 | 57.80774 | 8.35357 | 16313 ft | 305 kts | 28° |
| 2026-04-21 14:20 | 57.82673 | 8.37117 | 15941 ft | 304 kts | 28° |
| 2026-04-21 14:20 | 57.84568 | 8.38877 | 15564 ft | 303 kts | 28° |
| 2026-04-21 14:21 | 57.86443 | 8.40629 | 15266 ft | 299 kts | 28° |
| 2026-04-21 14:21 | 57.88299 | 8.42363 | 14853 ft | 299 kts | 27° |
| 2026-04-21 14:21 | 57.90146 | 8.44086 | 14634 ft | 293 kts | 27° |
| 2026-04-21 14:21 | 57.92020 | 8.45501 | 14343 ft | 289 kts | 18° |
| 2026-04-21 14:22 | 57.93985 | 8.46301 | 13988 ft | 289 kts | 8° |
| 2026-04-21 14:22 | 57.95986 | 8.46596 | 13582 ft | 288 kts | 5° |
| 2026-04-21 14:22 | 57.97984 | 8.46868 | 13179 ft | 288 kts | 5° |
| 2026-04-21 14:22 | 57.99977 | 8.47151 | 12783 ft | 287 kts | 5° |
| 2026-04-21 14:23 | 58.01963 | 8.47437 | 12388 ft | 286 kts | 6° |
| 2026-04-21 14:23 | 58.03918 | 8.47718 | 12005 ft | 285 kts | 6° |
| 2026-04-21 14:23 | 58.05888 | 8.48001 | 11625 ft | 284 kts | 6° |
| 2026-04-21 14:23 | 58.07853 | 8.48279 | 11252 ft | 282 kts | 6° |
| 2026-04-21 14:24 | 58.09807 | 8.48555 | 10876 ft | 281 kts | 6° |
| 2026-04-21 14:24 | 58.11758 | 8.48831 | 10510 ft | 280 kts | 6° |
| 2026-04-21 14:24 | 58.13690 | 8.49105 | 10123 ft | 278 kts | 6° |
| 2026-04-21 14:24 | 58.15596 | 8.49611 | 9717 ft | 275 kts | 16° |
| 2026-04-21 14:25 | 58.17354 | 8.50906 | 9471 ft | 269 kts | 29° |
| 2026-04-21 14:25 | 58.18925 | 8.52867 | 9335 ft | 272 kts | 36° |
| 2026-04-21 14:25 | 58.20459 | 8.54949 | 9204 ft | 272 kts | 36° |
| 2026-04-21 14:25 | 58.22004 | 8.57035 | 8898 ft | 271 kts | 36° |
| 2026-04-21 14:26 | 58.23603 | 8.58898 | 8497 ft | 270 kts | 21° |
| 2026-04-21 14:26 | 58.25447 | 8.59368 | 8086 ft | 271 kts | 354° |
| 2026-04-21 14:26 | 58.27207 | 8.58111 | 7642 ft | 274 kts | 327° |
| 2026-04-21 14:26 | 58.28516 | 8.55395 | 7105 ft | 282 kts | 306° |
| 2026-04-21 14:27 | 58.29613 | 8.52341 | 6769 ft | 278 kts | 307° |
| 2026-04-21 14:27 | 58.30719 | 8.49326 | 6393 ft | 276 kts | 307° |
| 2026-04-21 14:27 | 58.31814 | 8.46360 | 6003 ft | 273 kts | 307° |
| 2026-04-21 14:27 | 58.32916 | 8.43394 | 5405 ft | 279 kts | 307° |
| 2026-04-21 14:28 | 58.34039 | 8.40387 | 4581 ft | 276 kts | 307° |
| 2026-04-21 14:28 | 58.35124 | 8.37463 | 4115 ft | 259 kts | 306° |
| 2026-04-21 14:28 | 58.35938 | 8.34637 | 3984 ft | 234 kts | 286° |
| 2026-04-21 14:28 | 58.36023 | 8.31731 | 3876 ft | 209 kts | 262° |
| 2026-04-21 14:29 | 58.35527 | 8.29320 | 3801 ft | 184 kts | 239° |
| 2026-04-21 14:29 | 58.34709 | 8.27606 | 3662 ft | 176 kts | 219° |
| 2026-04-21 14:29 | 58.33713 | 8.26280 | 3563 ft | 174 kts | 216° |
| 2026-04-21 14:29 | 58.32768 | 8.25005 | 3341 ft | 161 kts | 216° |
| 2026-04-21 14:30 | 58.31843 | 8.23762 | 3125 ft | 168 kts | 216° |
| 2026-04-21 14:30 | 58.30885 | 8.22478 | 2851 ft | 169 kts | 216° |
| 2026-04-21 14:30 | 58.29928 | 8.21199 | 2579 ft | 168 kts | 215° |
| 2026-04-21 14:30 | 58.28979 | 8.19931 | 2322 ft | 166 kts | 215° |
| 2026-04-21 14:31 | 58.28042 | 8.18680 | 2060 ft | 164 kts | 214° |
| 2026-04-21 14:31 | 58.27115 | 8.17443 | 1796 ft | 162 kts | 214° |
| 2026-04-21 14:31 | 58.26194 | 8.16216 | 1537 ft | 161 kts | 214° |
| 2026-04-21 14:31 | 58.25302 | 8.15027 | 1279 ft | 149 kts | 214° |
| 2026-04-21 14:32 | 58.24488 | 8.13943 | 1042 ft | 139 kts | 214° |
| 2026-04-21 14:32 | 58.23711 | 8.12910 | 828 ft | 134 kts | 214° |
| 2026-04-21 14:32 | 58.22973 | 8.11929 | 641 ft | 134 kts | 214° |
| 2026-04-21 14:32 | 58.22308 | 8.11044 | 433 ft | 131 kts | 214° |
| 2026-04-21 14:33 | 58.21559 | 8.10050 | 240 ft | 131 kts | 214° |
| 2026-04-21 14:33 | 58.20821 | 8.09065 | 61 ft | 124 kts | 214° |
| 2026-04-21 14:33 | 58.20274 | 8.08341 | 54 ft | 77 kts | 215° |
| 2026-04-21 14:33 | 58.19880 | 8.07824 | 48 ft | 54 kts | 215° |
| 2026-04-21 14:34 | 58.19710 | 8.07558 | 50 ft | 14 kts | 257° |
| 2026-04-21 14:34 | 58.19737 | 8.07488 | 49 ft | 9 kts | 327° |
| 2026-04-21 14:34 | 58.19830 | 8.07423 | 49 ft | 18 kts | 340° |
| 2026-04-21 14:34 | 58.19946 | 8.07354 | 50 ft | 16 kts | 353° |
| 2026-04-21 14:35 | 58.20032 | 8.07414 | 47 ft | 13 kts | 30° |
| 2026-04-21 14:35 | 58.20104 | 8.07493 | 51 ft | 11 kts | 31° |
| 2026-04-21 14:35 | 58.20136 | 8.07529 | 49 ft | 7 kts | 31° |
| 2026-04-21 14:35 | 58.20172 | 8.07572 | 51 ft | 5 kts | 30° |
| 2026-04-21 14:36 | 58.20199 | 8.07561 | 51 ft | 3 kts | 317° |
| 2026-04-21 14:36 | 58.20210 | 8.07528 | 51 ft | 3 kts | 301° |
| 2026-04-21 14:36 | 58.20213 | 8.07517 | 51 ft | 0 kts | 301° |
| 2026-04-21 14:40 | 58.20180 | 8.07479 | 50 ft | 0 kts | 301° |